Time;durP1;ratioP1;P1;durP2;ratioP2;P2;SDS_P1;SDS_P2;PMS_P1;PMS_P2;Temp;Humidity;BMP_temperature;BMP_pressure;BME280_temperature;BME280_humidity;BME280_pressure;Samples;Min_cycle;Max_cycle;Signal;HPM_P1;HPM_P2
2024/01/29 00:02:35;;;;;;;90.97;41.60;;;;;;;;;;10082425;28;20041;-76
2024/01/29 00:07:27;;;;;;;149.13;39.17;;;;;;;;;;10076759;28;20049;-76
2024/01/29 00:12:19;;;;;;;69.45;36.45;;;;;;;;;;10096289;28;20502;-76
2024/01/29 00:17:11;;;;;;;96.78;37.38;;;;;;;;;;10100818;28;20420;-76
2024/01/29 00:22:03;;;;;;;82.00;36.97;;;;;;;;;;10105362;28;20106;-76
2024/01/29 00:26:55;;;;;;;61.15;37.70;;;;;;;;;;10105529;28;20045;-76
2024/01/29 00:31:47;;;;;;;104.90;38.30;;;;;;;;;;10105331;28;20041;-76
2024/01/29 00:36:38;;;;;;;78.22;38.28;;;;;;;;;;10104772;28;20424;-76
2024/01/29 00:41:30;;;;;;;77.93;38.83;;;;;;;;;;10105372;28;20423;-76
2024/01/29 00:46:22;;;;;;;76.07;40.70;;;;;;;;;;10103662;28;20045;-76
2024/01/29 00:51:14;;;;;;;72.45;41.22;;;;;;;;;;10104380;28;20412;-77
2024/01/29 00:56:06;;;;;;;84.25;37.58;;;;;;;;;;10104335;28;20095;-76
2024/01/29 01:00:58;;;;;;;87.82;41.45;;;;;;;;;;10104383;28;20172;-76
2024/01/29 01:05:50;;;;;;;63.78;38.47;;;;;;;;;;10103303;28;20148;-75
2024/01/29 01:10:42;;;;;;;64.55;40.47;;;;;;;;;;10103885;28;20486;-76
2024/01/29 01:15:34;;;;;;;141.43;36.72;;;;;;;;;;10103726;28;20132;-76
2024/01/29 01:20:26;;;;;;;103.95;35.85;;;;;;;;;;10102063;28;20593;-76
2024/01/29 01:25:18;;;;;;;76.50;34.85;;;;;;;;;;10104107;28;20064;-76
2024/01/29 01:30:10;;;;;;;63.63;34.60;;;;;;;;;;10102310;28;20048;-76
2024/01/29 01:35:02;;;;;;;200.55;38.88;;;;;;;;;;10101957;28;20060;-77
2024/01/29 01:39:54;;;;;;;72.22;33.10;;;;;;;;;;10102064;28;20053;-76
2024/01/29 01:44:47;;;;;;;58.08;36.15;;;;;;;;;;10102706;28;20063;-77
2024/01/29 01:49:39;;;;;;;69.47;34.28;;;;;;;;;;10101674;28;20049;-76
2024/01/29 01:54:31;;;;;;;100.97;35.08;;;;;;;;;;10100975;28;20403;-76
2024/01/29 01:59:24;;;;;;;128.20;34.00;;;;;;;;;;10101163;28;20044;-76
2024/01/29 02:04:16;;;;;;;59.63;30.25;;;;;;;;;;10100931;28;20044;-76
2024/01/29 02:09:08;;;;;;;86.78;31.35;;;;;;;;;;10101792;28;20099;-76
2024/01/29 02:14:00;;;;;;;61.70;30.73;;;;;;;;;;10102174;28;20444;-76
2024/01/29 02:18:52;;;;;;;112.75;33.05;;;;;;;;;;10102071;28;20071;-77
2024/01/29 02:23:45;;;;;;;107.07;32.10;;;;;;;;;;10101860;28;20419;-76
2024/01/29 02:28:37;;;;;;;44.67;29.92;;;;;;;;;;10100204;28;20041;-76
2024/01/29 02:33:29;;;;;;;70.25;34.10;;;;;;;;;;10101721;28;20059;-76
2024/01/29 02:38:21;;;;;;;79.18;34.72;;;;;;;;;;10101334;28;20045;-76
2024/01/29 02:43:13;;;;;;;75.05;31.27;;;;;;;;;;10089433;28;20067;-76
2024/01/29 02:48:06;;;;;;;91.75;31.80;;;;;;;;;;10099698;28;20044;-76
2024/01/29 02:53:01;;;;;;;170.15;35.15;;;;;;;;;;10101152;28;20472;-76
2024/01/29 02:57:53;;;;;;;75.32;35.40;;;;;;;;;;10100878;28;20395;-76
2024/01/29 03:02:44;;;;;;;63.50;36.05;;;;;;;;;;10099594;28;20045;-76
2024/01/29 03:07:36;;;;;;;106.40;35.67;;;;;;;;;;10102226;28;20037;-76
2024/01/29 03:12:28;;;;;;;43.72;30.05;;;;;;;;;;10108435;28;20463;-76
2024/01/29 03:17:20;;;;;;;40.00;29.60;;;;;;;;;;10107443;28;20094;-76
2024/01/29 03:22:12;;;;;;;43.30;28.73;;;;;;;;;;10108116;28;20087;-77
2024/01/29 03:27:04;;;;;;;78.25;31.25;;;;;;;;;;10108473;28;20095;-77
2024/01/29 03:31:56;;;;;;;69.68;35.10;;;;;;;;;;10107904;28;20056;-76
2024/01/29 03:36:48;;;;;;;49.35;30.35;;;;;;;;;;10105986;28;20037;-76
2024/01/29 03:41:40;;;;;;;41.03;31.17;;;;;;;;;;10107158;28;20167;-76
2024/01/29 03:46:32;;;;;;;44.20;31.90;;;;;;;;;;10107060;28;20492;-76
2024/01/29 03:51:24;;;;;;;44.05;29.88;;;;;;;;;;10106846;28;20128;-77
2024/01/29 03:56:16;;;;;;;40.70;28.38;;;;;;;;;;10105916;28;20382;-76
2024/01/29 04:01:07;;;;;;;46.17;31.15;;;;;;;;;;10105240;28;20048;-76
2024/01/29 04:06:00;;;;;;;54.70;37.08;;;;;;;;;;10105609;28;20118;-77
2024/01/29 04:10:51;;;;;;;47.47;33.55;;;;;;;;;;10106326;28;20135;-76
2024/01/29 04:15:43;;;;;;;48.92;33.25;;;;;;;;;;10105827;28;20063;-77
2024/01/29 04:20:35;;;;;;;48.10;33.60;;;;;;;;;;10106511;28;20041;-76
2024/01/29 04:25:27;;;;;;;57.05;35.83;;;;;;;;;;10104151;28;20533;-77
2024/01/29 04:30:19;;;;;;;77.00;37.92;;;;;;;;;;10106889;28;20040;-76
2024/01/29 04:35:11;;;;;;;80.22;32.50;;;;;;;;;;10104243;28;20136;-77
2024/01/29 04:40:03;;;;;;;80.00;38.35;;;;;;;;;;10104294;28;20168;-76
2024/01/29 04:44:56;;;;;;;54.35;35.47;;;;;;;;;;10104809;28;20357;-77
2024/01/29 04:49:48;;;;;;;75.15;36.70;;;;;;;;;;10105402;28;20057;-76
2024/01/29 04:54:39;;;;;;;59.05;33.65;;;;;;;;;;10104341;28;20132;-76
2024/01/29 04:59:31;;;;;;;64.43;34.50;;;;;;;;;;10104034;28;20041;-76
2024/01/29 05:04:23;;;;;;;64.00;36.55;;;;;;;;;;10104052;28;20045;-76
2024/01/29 05:09:17;;;;;;;72.25;36.85;;;;;;;;;;10103913;28;20055;-76
2024/01/29 05:14:09;;;;;;;73.90;39.20;;;;;;;;;;10103434;28;20493;-76
2024/01/29 05:19:01;;;;;;;74.15;35.58;;;;;;;;;;10102312;28;20040;-76
2024/01/29 05:23:53;;;;;;;73.15;38.55;;;;;;;;;;10103635;28;20509;-76
2024/01/29 05:28:45;;;;;;;117.95;40.15;;;;;;;;;;10102812;28;20443;-76
2024/01/29 05:33:36;;;;;;;70.60;39.30;;;;;;;;;;10102337;28;20350;-76
2024/01/29 05:38:31;;;;;;;64.47;39.22;;;;;;;;;;10101973;28;20052;-78
2024/01/29 05:43:23;;;;;;;87.75;40.13;;;;;;;;;;10103996;28;20045;-78
2024/01/29 05:48:15;;;;;;;79.50;37.25;;;;;;;;;;10101491;28;20052;-78
2024/01/29 05:53:07;;;;;;;67.60;35.67;;;;;;;;;;10102544;28;20370;-81
2024/01/29 05:57:59;;;;;;;68.18;35.92;;;;;;;;;;10101901;28;20076;-78
2024/01/29 06:02:50;;;;;;;75.28;32.33;;;;;;;;;;10103151;28;20091;-78
2024/01/29 06:07:43;;;;;;;66.00;31.70;;;;;;;;;;10100373;28;20037;-78
2024/01/29 06:12:35;;;;;;;56.38;31.88;;;;;;;;;;10101117;28;20324;-77
2024/01/29 06:17:27;;;;;;;46.08;32.85;;;;;;;;;;10102275;28;20091;-78
2024/01/29 06:22:19;;;;;;;77.80;34.38;;;;;;;;;;10098479;28;20095;-78
2024/01/29 06:27:11;;;;;;;63.75;33.08;;;;;;;;;;10100644;28;20080;-78
2024/01/29 06:32:03;;;;;;;62.15;33.22;;;;;;;;;;10099896;28;20137;-78
2024/01/29 06:36:55;;;;;;;58.60;33.05;;;;;;;;;;10092372;28;20052;-78
2024/01/29 06:41:47;;;;;;;68.65;32.72;;;;;;;;;;10076721;28;20041;-80
2024/01/29 06:46:39;;;;;;;85.20;37.33;;;;;;;;;;10100916;28;20114;-78
2024/01/29 06:51:31;;;;;;;70.82;35.38;;;;;;;;;;10104339;28;20073;-78
2024/01/29 06:56:23;;;;;;;105.82;38.50;;;;;;;;;;10092836;28;20460;-81
2024/01/29 07:01:20;;;;;;;75.25;35.35;;;;;;;;;;10101089;28;20129;-79
2024/01/29 07:06:12;;;;;;;108.95;37.97;;;;;;;;;;10091514;28;20508;-78
2024/01/29 07:11:04;;;;;;;58.85;33.10;;;;;;;;;;10093709;28;20053;-79
2024/01/29 07:15:56;;;;;;;77.55;36.63;;;;;;;;;;10097995;28;20049;-78
2024/01/29 07:20:49;;;;;;;130.52;38.83;;;;;;;;;;10102236;28;20055;-77
2024/01/29 07:25:41;;;;;;;67.25;37.72;;;;;;;;;;10104275;28;20041;-77
2024/01/29 07:30:33;;;;;;;65.25;40.25;;;;;;;;;;10095051;28;20435;-77
2024/01/29 07:35:26;;;;;;;99.53;39.17;;;;;;;;;;10097228;28;20044;-77
2024/01/29 07:40:18;;;;;;;107.93;39.55;;;;;;;;;;10107777;28;20053;-77
2024/01/29 07:45:10;;;;;;;74.97;32.20;;;;;;;;;;10106283;28;20478;-77
2024/01/29 07:50:02;;;;;;;95.32;34.50;;;;;;;;;;10107134;28;20037;-77
2024/01/29 07:54:54;;;;;;;87.78;34.67;;;;;;;;;;10107030;28;20037;-77
2024/01/29 07:59:46;;;;;;;66.15;33.72;;;;;;;;;;10106500;28;20717;-77
2024/01/29 08:04:38;;;;;;;89.60;36.30;;;;;;;;;;10106834;28;20128;-76
2024/01/29 08:09:30;;;;;;;137.32;34.33;;;;;;;;;;10107484;28;20060;-77
2024/01/29 08:14:22;;;;;;;67.95;32.78;;;;;;;;;;10105882;28;20428;-76
2024/01/29 08:19:14;;;;;;;68.68;35.92;;;;;;;;;;10105958;28;20064;-77
2024/01/29 08:24:08;;;;;;;118.05;34.42;;;;;;;;;;10105937;28;20094;-77
2024/01/29 08:29:00;;;;;;;68.65;36.63;;;;;;;;;;10105922;28;20057;-77
2024/01/29 08:33:52;;;;;;;60.55;38.05;;;;;;;;;;10105717;28;20123;-77
2024/01/29 08:38:44;;;;;;;57.83;34.63;;;;;;;;;;10105318;28;20155;-77
2024/01/29 08:43:36;;;;;;;55.55;38.53;;;;;;;;;;10106008;28;20486;-77
2024/01/29 08:48:28;;;;;;;68.82;37.03;;;;;;;;;;10105154;28;20527;-77
2024/01/29 08:53:20;;;;;;;69.50;35.58;;;;;;;;;;10105375;28;20147;-77
2024/01/29 08:58:12;;;;;;;85.03;36.83;;;;;;;;;;10105182;28;20143;-77
2024/01/29 09:03:04;;;;;;;63.58;37.03;;;;;;;;;;10105008;28;20044;-77
2024/01/29 09:07:56;;;;;;;56.40;35.38;;;;;;;;;;10103743;28;20049;-76
2024/01/29 09:12:57;;;;;;;48.88;34.13;;;;;;;;;;10104599;28;20041;-77
2024/01/29 09:17:49;;;;;;;58.05;36.33;;;;;;;;;;10104511;28;20041;-76
2024/01/29 09:22:41;;;;;;;61.92;36.92;;;;;;;;;;10103309;28;20076;-76
2024/01/29 09:27:34;;;;;;;51.83;36.20;;;;;;;;;;10103954;28;20528;-77
2024/01/29 09:32:26;;;;;;;46.95;34.40;;;;;;;;;;10101417;28;20049;-77
2024/01/29 09:37:19;;;;;;;48.80;34.90;;;;;;;;;;10102824;28;20049;-76
2024/01/29 09:42:17;;;;;;;50.97;32.88;;;;;;;;;;10104324;28;20153;-77
2024/01/29 09:47:11;;;;;;;50.90;36.03;;;;;;;;;;10104149;28;20172;-77
2024/01/29 09:52:04;;;;;;;51.05;35.15;;;;;;;;;;10100159;28;20091;-77
2024/01/29 09:56:56;;;;;;;50.00;36.30;;;;;;;;;;10104086;28;20053;-77
2024/01/29 10:01:48;;;;;;;46.17;36.25;;;;;;;;;;10101336;28;20041;-76
2024/01/29 10:06:40;;;;;;;50.53;38.67;;;;;;;;;;10102769;28;20045;-77
2024/01/29 10:11:33;;;;;;;49.17;35.95;;;;;;;;;;10102037;28;20045;-77
2024/01/29 10:16:26;;;;;;;49.95;37.30;;;;;;;;;;10102556;28;20049;-77
2024/01/29 10:21:17;;;;;;;53.05;40.55;;;;;;;;;;10102246;28;20045;-77
2024/01/29 10:26:14;;;;;;;46.63;38.38;;;;;;;;;;10101706;28;20041;-77
2024/01/29 10:31:06;;;;;;;49.03;39.22;;;;;;;;;;10101989;28;20506;-76
2024/01/29 10:36:00;;;;;;;49.90;37.45;;;;;;;;;;10100811;28;20074;-76
2024/01/29 10:40:53;;;;;;;53.35;38.22;;;;;;;;;;10099469;28;20049;-76
2024/01/29 10:45:54;;;;;;;48.15;35.88;;;;;;;;;;10100398;28;20068;-77
2024/01/29 10:50:47;;;;;;;56.30;33.80;;;;;;;;;;10101367;28;20120;-77
2024/01/29 10:55:39;;;;;;;47.20;36.28;;;;;;;;;;10101611;28;20445;-78
2024/01/29 11:00:33;;;;;;;44.67;32.20;;;;;;;;;;10100776;28;20041;-75
2024/01/29 11:05:25;;;;;;;40.53;30.25;;;;;;;;;;10100463;28;20124;-74
2024/01/29 11:10:20;;;;;;;44.28;35.38;;;;;;;;;;10098779;28;20049;-75
2024/01/29 11:15:12;;;;;;;43.95;35.25;;;;;;;;;;10099605;28;20098;-74
2024/01/29 11:20:13;;;;;;;41.63;32.15;;;;;;;;;;10099592;28;20099;-77
2024/01/29 11:25:12;;;;;;;39.95;33.58;;;;;;;;;;10100057;28;20041;-77
2024/01/29 11:30:15;;;;;;;;;;;;;;;;;;10104599;28;20960;-77
2024/01/29 11:35:13;;;;;;;43.30;34.17;;;;;;;;;;10107055;28;19927;-78
2024/01/29 11:40:25;;;;;;;50.17;39.03;;;;;;;;;;10100192;28;20079;-77
2024/01/29 11:45:17;;;;;;;51.28;35.08;;;;;;;;;;10106634;28;20075;-78
2024/01/29 11:50:09;;;;;;;43.20;34.10;;;;;;;;;;10106594;28;20475;-77
2024/01/29 11:55:02;;;;;;;47.45;37.08;;;;;;;;;;10107327;28;20080;-77
2024/01/29 11:59:54;;;;;;;42.55;32.83;;;;;;;;;;10108815;28;20415;-77
2024/01/29 12:04:46;;;;;;;40.00;32.60;;;;;;;;;;10105935;28;20547;-77
2024/01/29 12:09:38;;;;;;;59.97;40.80;;;;;;;;;;10106417;28;20061;-77
2024/01/29 12:14:30;;;;;;;47.60;38.50;;;;;;;;;;10106945;28;20448;-76
2024/01/29 12:19:22;;;;;;;47.35;35.80;;;;;;;;;;10106493;28;20049;-77
2024/01/29 12:24:19;;;;;;;49.15;36.88;;;;;;;;;;10105885;28;20107;-77
2024/01/29 12:29:11;;;;;;;52.42;36.90;;;;;;;;;;10106223;28;20033;-77
2024/01/29 12:34:05;;;;;;;43.45;34.45;;;;;;;;;;10105080;28;20049;-77
2024/01/29 12:38:58;;;;;;;43.70;35.65;;;;;;;;;;10105128;28;20059;-77
2024/01/29 12:43:51;;;;;;;51.00;36.03;;;;;;;;;;10105873;28;20053;-77
2024/01/29 12:48:43;;;;;;;44.88;37.50;;;;;;;;;;10105077;28;20430;-77
2024/01/29 12:53:36;;;;;;;48.72;37.60;;;;;;;;;;10104990;28;20049;-77
2024/01/29 12:58:28;;;;;;;56.17;40.42;;;;;;;;;;10105165;28;20041;-77
2024/01/29 13:03:20;;;;;;;52.65;40.30;;;;;;;;;;10104668;28;20036;-77
2024/01/29 13:08:12;;;;;;;53.65;39.97;;;;;;;;;;10101724;28;20071;-77
2024/01/29 13:13:06;;;;;;;50.08;39.40;;;;;;;;;;10103377;28;20049;-77
2024/01/29 13:17:59;;;;;;;46.85;37.95;;;;;;;;;;10105472;28;20101;-77
2024/01/29 13:22:50;;;;;;;38.20;31.90;;;;;;;;;;10103027;28;20041;-77
2024/01/29 13:27:44;;;;;;;49.78;37.92;;;;;;;;;;10104241;28;20124;-77
2024/01/29 13:32:38;;;;;;;44.38;33.70;;;;;;;;;;10103760;28;20048;-77
2024/01/29 13:37:30;;;;;;;47.55;35.80;;;;;;;;;;10102952;28;20360;-77
2024/01/29 13:42:22;;;;;;;44.55;33.08;;;;;;;;;;10103751;28;20080;-77
2024/01/29 13:47:14;;;;;;;45.53;34.63;;;;;;;;;;10102380;28;20045;-77
2024/01/29 13:52:08;;;;;;;48.30;36.25;;;;;;;;;;10102140;28;20067;-76
2024/01/29 13:57:00;;;;;;;47.92;36.95;;;;;;;;;;10102527;28;20049;-77
2024/01/29 14:01:52;;;;;;;43.00;34.15;;;;;;;;;;10102970;28;20136;-77
2024/01/29 14:06:44;;;;;;;42.28;33.15;;;;;;;;;;10100766;28;20051;-77
2024/01/29 14:11:36;;;;;;;48.15;34.20;;;;;;;;;;10102302;28;20412;-77
2024/01/29 14:16:28;;;;;;;47.75;36.72;;;;;;;;;;10101785;28;20044;-78
2024/01/29 14:21:20;;;;;;;43.75;34.58;;;;;;;;;;10102355;28;20049;-77
2024/01/29 14:26:12;;;;;;;44.47;35.10;;;;;;;;;;10100256;28;20476;-77
2024/01/29 14:31:06;;;;;;;46.83;33.17;;;;;;;;;;10101817;28;20071;-77
2024/01/29 14:35:58;;;;;;;44.33;35.95;;;;;;;;;;10101830;28;20132;-77
2024/01/29 14:40:50;;;;;;;48.45;34.75;;;;;;;;;;10100737;28;20122;-75
2024/01/29 14:45:41;;;;;;;44.97;37.20;;;;;;;;;;10101280;28;20045;-77
2024/01/29 14:50:34;;;;;;;42.17;34.03;;;;;;;;;;10103111;28;20499;-77
2024/01/29 14:55:27;;;;;;;46.67;36.85;;;;;;;;;;10100281;28;20136;-78
2024/01/29 15:00:20;;;;;;;52.30;37.83;;;;;;;;;;10101162;28;20053;-77
2024/01/29 15:05:12;;;;;;;50.42;37.20;;;;;;;;;;10105818;28;20048;-78
2024/01/29 15:10:09;;;;;;;51.33;38.70;;;;;;;;;;10109262;28;20450;-77
2024/01/29 15:15:03;;;;;;;62.78;39.78;;;;;;;;;;10109618;28;20103;-77
2024/01/29 15:19:55;;;;;;;50.95;36.42;;;;;;;;;;10108592;28;20095;-78
2024/01/29 15:24:49;;;;;;;50.08;38.30;;;;;;;;;;10108364;28;20068;-77
2024/01/29 15:29:41;;;;;;;53.10;40.28;;;;;;;;;;10109209;28;20045;-78
2024/01/29 15:34:36;;;;;;;61.65;41.00;;;;;;;;;;10107146;28;20041;-84
2024/01/29 15:39:29;;;;;;;66.05;44.08;;;;;;;;;;10105704;28;20464;-83
2024/01/29 15:44:21;;;;;;;53.88;42.55;;;;;;;;;;10106866;28;20056;-86
2024/01/29 15:49:13;;;;;;;53.30;40.95;;;;;;;;;;10108267;28;20096;-83
2024/01/29 15:54:06;;;;;;;49.35;37.63;;;;;;;;;;10107033;28;20041;-84
2024/01/29 15:58:57;;;;;;;53.28;38.65;;;;;;;;;;10107693;28;20444;-84
2024/01/29 16:03:50;;;;;;;50.20;35.92;;;;;;;;;;10107457;28;20458;-83
2024/01/29 16:08:43;;;;;;;57.13;40.55;;;;;;;;;;10106797;28;20045;-81
2024/01/29 16:13:35;;;;;;;50.80;37.70;;;;;;;;;;10105903;28;20041;-81
2024/01/29 16:18:27;;;;;;;50.15;38.97;;;;;;;;;;10105701;28;20052;-81
2024/01/29 16:23:20;;;;;;;54.20;43.33;;;;;;;;;;10104250;28;20041;-81
2024/01/29 16:28:12;;;;;;;46.85;36.60;;;;;;;;;;10105314;28;20044;-84
2024/01/29 16:33:04;;;;;;;51.55;35.28;;;;;;;;;;10106080;28;20103;-81
2024/01/29 16:37:57;;;;;;;49.88;36.95;;;;;;;;;;10106402;28;20893;-81
2024/01/29 16:42:49;;;;;;;62.10;45.42;;;;;;;;;;10104945;28;20044;-83
2024/01/29 16:47:44;;;;;;;57.28;40.65;;;;;;;;;;10105272;28;20045;-84
2024/01/29 16:52:36;;;;;;;47.22;37.40;;;;;;;;;;10099511;28;20060;-81
2024/01/29 16:57:28;;;;;;;47.40;34.83;;;;;;;;;;10103516;28;20044;-81
2024/01/29 17:02:20;;;;;;;60.10;47.38;;;;;;;;;;10104696;28;20335;-82
2024/01/29 17:07:12;;;;;;;54.95;43.85;;;;;;;;;;10104023;28;20047;-83
2024/01/29 17:12:04;;;;;;;49.70;40.00;;;;;;;;;;10103522;28;20049;-82
2024/01/29 17:16:56;;;;;;;59.95;43.00;;;;;;;;;;10104379;28;20387;-82
2024/01/29 17:21:49;;;;;;;55.05;41.13;;;;;;;;;;10103694;28;20704;-84
2024/01/29 17:26:41;;;;;;;42.90;34.08;;;;;;;;;;10103753;28;20044;-84
2024/01/29 17:31:32;;;;;;;71.13;47.85;;;;;;;;;;10102638;28;20068;-81
2024/01/29 17:36:25;;;;;;;68.15;50.75;;;;;;;;;;10104007;28;20227;-83
2024/01/29 17:41:17;;;;;;;108.68;64.45;;;;;;;;;;10102713;28;20077;-83
2024/01/29 17:46:08;;;;;;;102.20;69.13;;;;;;;;;;10100981;28;20532;-82
2024/01/29 17:51:00;;;;;;;67.22;46.05;;;;;;;;;;10101430;28;20049;-84
2024/01/29 17:55:52;;;;;;;57.55;37.85;;;;;;;;;;10101530;28;20300;-83
2024/01/29 18:00:44;;;;;;;50.20;34.90;;;;;;;;;;10102307;28;20127;-82
2024/01/29 18:05:36;;;;;;;58.15;41.38;;;;;;;;;;10101675;28;20048;-82
2024/01/29 18:10:28;;;;;;;38.13;28.75;;;;;;;;;;10101082;28;20124;-80
2024/01/29 18:15:20;;;;;;;41.67;31.52;;;;;;;;;;10103034;28;20103;-82
2024/01/29 18:20:12;;;;;;;79.25;51.15;;;;;;;;;;10100429;28;20048;-82
2024/01/29 18:25:05;;;;;;;85.07;54.03;;;;;;;;;;10100776;28;20076;-82
2024/01/29 18:29:57;;;;;;;51.00;37.00;;;;;;;;;;10101831;28;20041;-83
2024/01/29 18:34:51;;;;;;;47.63;35.25;;;;;;;;;;10099084;28;20037;-80
2024/01/29 18:39:44;;;;;;;56.92;41.58;;;;;;;;;;10104681;28;20132;-80
2024/01/29 18:44:36;;;;;;;46.97;34.17;;;;;;;;;;10112858;28;20064;-82
2024/01/29 18:49:28;;;;;;;46.67;36.80;;;;;;;;;;10105415;28;20392;-84
2024/01/29 18:54:21;;;;;;;49.63;37.65;;;;;;;;;;10107461;28;20084;-83
2024/01/29 18:59:13;;;;;;;50.50;38.08;;;;;;;;;;10109061;28;20414;-81
2024/01/29 19:04:05;;;;;;;52.95;33.58;;;;;;;;;;10106491;28;20064;-83
2024/01/29 19:08:57;;;;;;;43.10;32.60;;;;;;;;;;10109974;28;20144;-84
2024/01/29 19:13:49;;;;;;;54.83;37.90;;;;;;;;;;10110702;28;20188;-74
2024/01/29 19:18:41;;;;;;;58.13;40.35;;;;;;;;;;10109991;28;20376;-75
2024/01/29 19:23:33;;;;;;;45.17;31.80;;;;;;;;;;10113443;28;20388;-79
2024/01/29 19:28:26;;;;;;;52.50;39.22;;;;;;;;;;10112713;28;20049;-86
2024/01/29 19:33:19;;;;;;;66.75;46.80;;;;;;;;;;10112898;28;20156;-85
2024/01/29 19:38:11;;;;;;;62.20;43.85;;;;;;;;;;10111924;28;20055;-85
2024/01/29 19:43:03;;;;;;;64.35;45.95;;;;;;;;;;10112659;28;20049;-85
2024/01/29 19:47:55;;;;;;;58.60;42.78;;;;;;;;;;10113483;28;20128;-85
2024/01/29 19:52:48;;;;;;;43.45;34.17;;;;;;;;;;10104786;28;20147;-83
2024/01/29 19:57:40;;;;;;;47.70;33.97;;;;;;;;;;10107574;28;20406;-87
2024/01/29 20:02:33;;;;;;;47.85;38.58;;;;;;;;;;10106520;28;20340;-79
2024/01/29 20:07:28;;;;;;;53.05;40.88;;;;;;;;;;10106043;28;20533;-81
2024/01/29 20:12:20;;;;;;;62.75;46.00;;;;;;;;;;10106133;28;20048;-80
2024/01/29 20:17:12;;;;;;;50.67;36.20;;;;;;;;;;10105711;28;20037;-82
2024/01/29 20:22:04;;;;;;;51.95;35.50;;;;;;;;;;10103542;28;20124;-81
2024/01/29 20:26:56;;;;;;;46.33;34.42;;;;;;;;;;10104795;28;20045;-81
2024/01/29 20:31:48;;;;;;;47.00;31.88;;;;;;;;;;10102380;28;20037;-82
2024/01/29 20:36:41;;;;;;;61.22;45.05;;;;;;;;;;10106145;28;20079;-82
2024/01/29 20:41:40;;;;;;;67.38;47.05;;;;;;;;;;10097400;28;20053;-82
2024/01/29 20:46:38;;;;;;;61.45;44.53;;;;;;;;;;10068826;28;20383;-82
2024/01/29 20:51:30;;;;;;;65.38;46.55;;;;;;;;;;10105269;28;20041;-82
2024/01/29 20:56:23;;;;;;;67.25;46.67;;;;;;;;;;10071099;28;20164;-82
2024/01/29 21:01:15;;;;;;;59.90;42.05;;;;;;;;;;10084915;28;20084;-82
2024/01/29 21:06:08;;;;;;;41.00;33.75;;;;;;;;;;10089212;28;20053;-82
2024/01/29 21:11:00;;;;;;;50.03;36.45;;;;;;;;;;10088201;28;20049;-82
2024/01/29 21:15:53;;;;;;;34.78;27.02;;;;;;;;;;10091566;28;20048;-82
2024/01/29 21:20:45;;;;;;;29.73;22.83;;;;;;;;;;10100240;28;20069;-84
2024/01/29 21:25:37;;;;;;;31.05;24.60;;;;;;;;;;10083892;28;20147;-81
2024/01/29 21:30:29;;;;;;;30.15;22.35;;;;;;;;;;10087740;28;20044;-82
2024/01/29 21:35:21;;;;;;;38.42;27.05;;;;;;;;;;10095168;28;20452;-82
2024/01/29 21:40:13;;;;;;;36.88;27.25;;;;;;;;;;10092304;28;20057;-79
2024/01/29 21:45:07;;;;;;;32.28;23.85;;;;;;;;;;10093626;28;20056;-81
2024/01/29 21:50:01;;;;;;;38.05;25.08;;;;;;;;;;10093139;28;20110;-81
2024/01/29 21:54:53;;;;;;;38.72;27.95;;;;;;;;;;10092230;28;20140;-81
2024/01/29 21:59:44;;;;;;;41.85;32.70;;;;;;;;;;10081494;28;20079;-80
2024/01/29 22:04:37;;;;;;;44.33;32.13;;;;;;;;;;10091610;28;20041;-81
2024/01/29 22:09:29;;;;;;;40.33;32.90;;;;;;;;;;10078359;28;20064;-81
2024/01/29 22:14:21;;;;;;;45.42;31.05;;;;;;;;;;10092604;28;20079;-81
2024/01/29 22:19:13;;;;;;;44.40;31.55;;;;;;;;;;10087665;28;20460;-81
2024/01/29 22:24:05;;;;;;;45.50;31.52;;;;;;;;;;10073896;28;20064;-81
2024/01/29 22:28:58;;;;;;;48.35;35.90;;;;;;;;;;10077546;28;20041;-81
2024/01/29 22:33:50;;;;;;;65.88;39.05;;;;;;;;;;10089990;28;20041;-81
2024/01/29 22:38:43;;;;;;;42.92;32.30;;;;;;;;;;10090519;28;20041;-80
2024/01/29 22:43:35;;;;;;;36.65;28.05;;;;;;;;;;10089792;28;20044;-80
2024/01/29 22:48:27;;;;;;;40.58;28.95;;;;;;;;;;10099692;28;20045;-80
2024/01/29 22:53:19;;;;;;;35.13;26.77;;;;;;;;;;10079720;28;20171;-80
2024/01/29 22:58:12;;;;;;;35.90;25.75;;;;;;;;;;10089665;28;20371;-80
2024/01/29 23:03:04;;;;;;;37.70;26.23;;;;;;;;;;10088537;28;20044;-80
2024/01/29 23:07:56;;;;;;;37.65;27.83;;;;;;;;;;10080469;28;20073;-79
2024/01/29 23:12:48;;;;;;;39.40;28.40;;;;;;;;;;10083802;28;20052;-80
2024/01/29 23:17:41;;;;;;;34.47;24.92;;;;;;;;;;10102611;28;20494;-79
2024/01/29 23:22:33;;;;;;;32.25;22.80;;;;;;;;;;10067571;28;20056;-79
2024/01/29 23:27:25;;;;;;;35.10;25.15;;;;;;;;;;10069151;28;20049;-79
2024/01/29 23:32:17;;;;;;;37.33;24.40;;;;;;;;;;10084317;28;20405;-79
2024/01/29 23:37:20;;;;;;;30.42;24.27;;;;;;;;;;10100592;28;20072;-78
2024/01/29 23:42:13;;;;;;;33.10;24.40;;;;;;;;;;10104183;28;20045;-79
2024/01/29 23:47:05;;;;;;;34.60;24.80;;;;;;;;;;10076500;28;20106;-79
2024/01/29 23:51:56;;;;;;;32.45;21.27;;;;;;;;;;10095200;28;20051;-79
2024/01/29 23:56:49;;;;;;;28.17;20.65;;;;;;;;;;10103565;28;20056;-79
